Terminal Aerodrome Forecast
Issued by NWS

Home | Current Version | Previous Version | Graphics & Text | Print | Product List | Glossary On
Versions: 1 2 3 4 5 6 7 8 9 10 11 12 13 14 15
986
FTUS43 KBIS 191123
TAFMOT
TAF
KMOT 191123Z 1912/2012 18012G22KT P6SM SKC
     FM191500 22015G22KT P6SM FEW100 FEW250
     FM192000 31019G28KT P6SM FEW120 FEW250
     FM200100 33012G20KT P6SM FEW090 SCT250
     FM200500 31008KT P6SM FEW120 FEW250=

USA.gov is the U.S. government's official web portal to all federal, state and local government web resources and services.